sensor_id;sensor_type;location;lat;lon;timestamp;pressure;altitude;pressure_sealevel;temperature;humidity
59274;BME280;45044;41.572;24.730;2023-02-28T00:00:32;91756.16;;;5.33;100.00
59274;BME280;45044;41.572;24.730;2023-02-28T00:02:59;91744.03;;;5.24;100.00
59274;BME280;45044;41.572;24.730;2023-02-28T00:05:27;91753.06;;;5.27;100.00
59274;BME280;45044;41.572;24.730;2023-02-28T00:07:55;91744.91;;;5.29;100.00
59274;BME280;45044;41.572;24.730;2023-02-28T00:10:24;91757.81;;;5.00;100.00
59274;BME280;45044;41.572;24.730;2023-02-28T00:12:55;91764.47;;;4.85;100.00
59274;BME280;45044;41.572;24.730;2023-02-28T00:15:23;91749.78;;;4.67;100.00
59274;BME280;45044;41.572;24.730;2023-02-28T00:17:51;91768.06;;;5.05;100.00
59274;BME280;45044;41.572;24.730;2023-02-28T00:20:18;91774.13;;;5.09;100.00
59274;BME280;45044;41.572;24.730;2023-02-28T00:22:48;91776.28;;;4.82;100.00
59274;BME280;45044;41.572;24.730;2023-02-28T00:25:21;91768.91;;;5.09;100.00
59274;BME280;45044;41.572;24.730;2023-02-28T00:27:48;91763.06;;;5.12;100.00
59274;BME280;45044;41.572;24.730;2023-02-28T00:30:18;91761.31;;;5.04;100.00
59274;BME280;45044;41.572;24.730;2023-02-28T00:32:45;91767.84;;;5.10;100.00
59274;BME280;45044;41.572;24.730;2023-02-28T00:35:12;91777.16;;;5.11;100.00
59274;BME280;45044;41.572;24.730;2023-02-28T00:37:39;91759.34;;;5.13;100.00
59274;BME280;45044;41.572;24.730;2023-02-28T00:40:07;91774.56;;;5.11;100.00
59274;BME280;45044;41.572;24.730;2023-02-28T00:42:35;91777.38;;;5.19;100.00
59274;BME280;45044;41.572;24.730;2023-02-28T00:45:03;91776.06;;;5.25;100.00
59274;BME280;45044;41.572;24.730;2023-02-28T00:47:31;91779.13;;;5.27;100.00
59274;BME280;45044;41.572;24.730;2023-02-28T00:49:58;91772.59;;;5.33;100.00
59274;BME280;45044;41.572;24.730;2023-02-28T00:52:25;91778.09;;;5.44;100.00
59274;BME280;45044;41.572;24.730;2023-02-28T00:54:52;91782.03;;;5.50;100.00
59274;BME280;45044;41.572;24.730;2023-02-28T00:57:18;91790.47;;;5.47;100.00
59274;BME280;45044;41.572;24.730;2023-02-28T00:59:45;91784.09;;;5.45;100.00
59274;BME280;45044;41.572;24.730;2023-02-28T01:02:12;91792.13;;;5.39;100.00
59274;BME280;45044;41.572;24.730;2023-02-28T01:04:39;91803.19;;;5.36;100.00
59274;BME280;45044;41.572;24.730;2023-02-28T01:07:06;91805.19;;;5.39;100.00
59274;BME280;45044;41.572;24.730;2023-02-28T01:09:32;91811.34;;;5.47;100.00
59274;BME280;45044;41.572;24.730;2023-02-28T01:11:59;91799.72;;;5.45;100.00
59274;BME280;45044;41.572;24.730;2023-02-28T01:14:26;91797.00;;;5.54;100.00
59274;BME280;45044;41.572;24.730;2023-02-28T01:16:53;91800.81;;;5.31;100.00
59274;BME280;45044;41.572;24.730;2023-02-28T01:19:19;91803.66;;;5.01;100.00
59274;BME280;45044;41.572;24.730;2023-02-28T01:21:46;91800.59;;;5.24;100.00
59274;BME280;45044;41.572;24.730;2023-02-28T01:24:13;91811.25;;;5.31;100.00
59274;BME280;45044;41.572;24.730;2023-02-28T01:26:40;91807.00;;;5.39;100.00
59274;BME280;45044;41.572;24.730;2023-02-28T01:29:07;91811.25;;;5.31;100.00
59274;BME280;45044;41.572;24.730;2023-02-28T01:31:34;91802.78;;;5.47;100.00
59274;BME280;45044;41.572;24.730;2023-02-28T01:34:01;91805.91;;;5.53;100.00
59274;BME280;45044;41.572;24.730;2023-02-28T01:36:29;91816.69;;;5.38;100.00
59274;BME280;45044;41.572;24.730;2023-02-28T01:38:56;91824.63;;;5.30;100.00
59274;BME280;45044;41.572;24.730;2023-02-28T01:41:28;91823.19;;;5.45;100.00
59274;BME280;45044;41.572;24.730;2023-02-28T01:44:05;91815.38;;;5.45;100.00
59274;BME280;45044;41.572;24.730;2023-02-28T01:46:34;91815.47;;;5.48;100.00
59274;BME280;45044;41.572;24.730;2023-02-28T01:51:46;91820.16;;;5.30;100.00
59274;BME280;45044;41.572;24.730;2023-02-28T01:54:23;91809.28;;;5.41;100.00
59274;BME280;45044;41.572;24.730;2023-02-28T01:57:06;91801.47;;;5.28;100.00
59274;BME280;45044;41.572;24.730;2023-02-28T01:59:43;91814.72;;;5.35;100.00
59274;BME280;45044;41.572;24.730;2023-02-28T02:02:20;91811.47;;;5.38;100.00
59274;BME280;45044;41.572;24.730;2023-02-28T02:04:55;91802.88;;;5.38;100.00
59274;BME280;45044;41.572;24.730;2023-02-28T02:07:25;91803.50;;;5.47;100.00
59274;BME280;45044;41.572;24.730;2023-02-28T02:13:14;91810.59;;;5.47;100.00
59274;BME280;45044;41.572;24.730;2023-02-28T02:18:36;91816.31;;;5.53;100.00
59274;BME280;45044;41.572;24.730;2023-02-28T02:26:28;91833.69;;;5.73;100.00
59274;BME280;45044;41.572;24.730;2023-02-28T02:29:08;91811.66;;;5.58;100.00
59274;BME280;45044;41.572;24.730;2023-02-28T02:34:30;91837.44;;;5.35;100.00
59274;BME280;45044;41.572;24.730;2023-02-28T02:42:57;91846.00;;;5.48;100.00
59274;BME280;45044;41.572;24.730;2023-02-28T02:45:32;91848.94;;;5.59;100.00
59274;BME280;45044;41.572;24.730;2023-02-28T02:48:06;91840.31;;;5.71;100.00
59274;BME280;45044;41.572;24.730;2023-02-28T02:51:01;91839.25;;;5.72;100.00
59274;BME280;45044;41.572;24.730;2023-02-28T02:53:39;91842.72;;;5.76;100.00
59274;BME280;45044;41.572;24.730;2023-02-28T02:56:08;91846.81;;;5.90;100.00
59274;BME280;45044;41.572;24.730;2023-02-28T02:58:39;91841.38;;;5.95;100.00
59274;BME280;45044;41.572;24.730;2023-02-28T03:01:17;91834.31;;;5.95;100.00
59274;BME280;45044;41.572;24.730;2023-02-28T03:03:57;91835.91;;;6.00;100.00
59274;BME280;45044;41.572;24.730;2023-02-28T03:06:25;91839.19;;;5.97;100.00
59274;BME280;45044;41.572;24.730;2023-02-28T03:08:52;91830.16;;;5.94;100.00
59274;BME280;45044;41.572;24.730;2023-02-28T03:11:19;91834.25;;;5.67;100.00
59274;BME280;45044;41.572;24.730;2023-02-28T03:16:57;91833.63;;;5.57;100.00
59274;BME280;45044;41.572;24.730;2023-02-28T03:25:17;91842.81;;;5.80;100.00
59274;BME280;45044;41.572;24.730;2023-02-28T03:27:59;91852.94;;;5.81;100.00
59274;BME280;45044;41.572;24.730;2023-02-28T03:30:53;91864.66;;;5.75;100.00
59274;BME280;45044;41.572;24.730;2023-02-28T03:35:59;91860.84;;;5.97;100.00
59274;BME280;45044;41.572;24.730;2023-02-28T03:38:39;91862.66;;;6.09;100.00
59274;BME280;45044;41.572;24.730;2023-02-28T03:41:16;91859.63;;;6.07;100.00
59274;BME280;45044;41.572;24.730;2023-02-28T03:44:15;91855.88;;;5.80;100.00
59274;BME280;45044;41.572;24.730;2023-02-28T03:46:57;91859.69;;;5.57;100.00
59274;BME280;45044;41.572;24.730;2023-02-28T03:49:35;91863.06;;;5.70;100.00
59274;BME280;45044;41.572;24.730;2023-02-28T03:52:06;91864.00;;;5.78;100.00
59274;BME280;45044;41.572;24.730;2023-02-28T03:54:38;91864.31;;;5.89;100.00
59274;BME280;45044;41.572;24.730;2023-02-28T03:59:52;91874.00;;;5.89;100.00
59274;BME280;45044;41.572;24.730;2023-02-28T04:02:22;91867.78;;;5.93;100.00
59274;BME280;45044;41.572;24.730;2023-02-28T04:04:49;91870.94;;;5.99;100.00
59274;BME280;45044;41.572;24.730;2023-02-28T04:07:17;91856.44;;;6.02;100.00
59274;BME280;45044;41.572;24.730;2023-02-28T04:09:44;91860.25;;;6.04;100.00
59274;BME280;45044;41.572;24.730;2023-02-28T04:12:11;91858.44;;;5.92;100.00
59274;BME280;45044;41.572;24.730;2023-02-28T04:14:38;91861.16;;;5.96;100.00
59274;BME280;45044;41.572;24.730;2023-02-28T04:17:04;91866.06;;;5.97;100.00
59274;BME280;45044;41.572;24.730;2023-02-28T04:19:31;91868.31;;;5.99;100.00
59274;BME280;45044;41.572;24.730;2023-02-28T04:21:58;91874.53;;;6.07;100.00
59274;BME280;45044;41.572;24.730;2023-02-28T04:24:27;91875.28;;;6.07;100.00
59274;BME280;45044;41.572;24.730;2023-02-28T04:26:55;91879.19;;;6.14;100.00
59274;BME280;45044;41.572;24.730;2023-02-28T04:29:24;91884.22;;;6.06;100.00
59274;BME280;45044;41.572;24.730;2023-02-28T04:31:52;91873.00;;;6.06;100.00
59274;BME280;45044;41.572;24.730;2023-02-28T04:34:20;91867.13;;;5.96;100.00
59274;BME280;45044;41.572;24.730;2023-02-28T04:36:48;91878.59;;;5.42;100.00
59274;BME280;45044;41.572;24.730;2023-02-28T04:39:37;91882.97;;;5.37;100.00
59274;BME280;45044;41.572;24.730;2023-02-28T04:42:04;91885.13;;;5.60;100.00
59274;BME280;45044;41.572;24.730;2023-02-28T04:44:31;91882.06;;;5.58;100.00
59274;BME280;45044;41.572;24.730;2023-02-28T04:46:58;91868.16;;;5.67;100.00
59274;BME280;45044;41.572;24.730;2023-02-28T04:49:25;91881.63;;;5.81;100.00
59274;BME280;45044;41.572;24.730;2023-02-28T04:51:52;91876.19;;;5.86;100.00
59274;BME280;45044;41.572;24.730;2023-02-28T04:54:19;91878.66;;;5.95;100.00
59274;BME280;45044;41.572;24.730;2023-02-28T04:56:46;91878.47;;;5.88;100.00
59274;BME280;45044;41.572;24.730;2023-02-28T04:59:16;91871.81;;;5.91;100.00
59274;BME280;45044;41.572;24.730;2023-02-28T05:01:47;91878.66;;;5.95;100.00
59274;BME280;45044;41.572;24.730;2023-02-28T05:04:14;91875.94;;;6.04;100.00
59274;BME280;45044;41.572;24.730;2023-02-28T05:06:42;91871.91;;;5.94;100.00
59274;BME280;45044;41.572;24.730;2023-02-28T05:09:08;91868.75;;;6.01;100.00
59274;BME280;45044;41.572;24.730;2023-02-28T05:11:38;91878.44;;;6.01;100.00
59274;BME280;45044;41.572;24.730;2023-02-28T05:14:10;91871.31;;;5.85;100.00
59274;BME280;45044;41.572;24.730;2023-02-28T05:16:37;91885.97;;;5.77;100.00
59274;BME280;45044;41.572;24.730;2023-02-28T05:19:04;91891.53;;;5.75;100.00
59274;BME280;45044;41.572;24.730;2023-02-28T05:21:35;91888.66;;;5.93;100.00
59274;BME280;45044;41.572;24.730;2023-02-28T05:24:09;91895.72;;;6.05;100.00
59274;BME280;45044;41.572;24.730;2023-02-28T05:26:41;91891.59;;;6.17;100.00
59274;BME280;45044;41.572;24.730;2023-02-28T05:29:09;91896.66;;;6.26;100.00
59274;BME280;45044;41.572;24.730;2023-02-28T05:31:37;91894.69;;;6.35;100.00
59274;BME280;45044;41.572;24.730;2023-02-28T05:34:04;91902.72;;;6.42;100.00
59274;BME280;45044;41.572;24.730;2023-02-28T05:36:32;91908.47;;;6.48;100.00
59274;BME280;45044;41.572;24.730;2023-02-28T05:38:59;91909.34;;;6.52;100.00
59274;BME280;45044;41.572;24.730;2023-02-28T05:41:26;91898.88;;;6.52;100.00
59274;BME280;45044;41.572;24.730;2023-02-28T05:43:53;91904.31;;;6.59;100.00
59274;BME280;45044;41.572;24.730;2023-02-28T05:46:20;91903.53;;;6.30;100.00
59274;BME280;45044;41.572;24.730;2023-02-28T05:48:47;91906.81;;;6.15;100.00
59274;BME280;45044;41.572;24.730;2023-02-28T05:51:15;91907.41;;;6.37;100.00
59274;BME280;45044;41.572;24.730;2023-02-28T05:53:42;91897.97;;;6.61;100.00
59274;BME280;45044;41.572;24.730;2023-02-28T05:56:09;91909.81;;;6.70;100.00
59274;BME280;45044;41.572;24.730;2023-02-28T05:58:36;91912.50;;;6.74;100.00
59274;BME280;45044;41.572;24.730;2023-02-28T06:01:24;91905.31;;;6.71;100.00
59274;BME280;45044;41.572;24.730;2023-02-28T06:03:53;91908.13;;;6.78;100.00
59274;BME280;45044;41.572;24.730;2023-02-28T06:06:20;91908.97;;;6.82;100.00
59274;BME280;45044;41.572;24.730;2023-02-28T06:08:46;91910.09;;;6.81;100.00
59274;BME280;45044;41.572;24.730;2023-02-28T06:11:13;91909.16;;;6.90;100.00
59274;BME280;45044;41.572;24.730;2023-02-28T06:13:40;91924.00;;;7.02;100.00
59274;BME280;45044;41.572;24.730;2023-02-28T06:16:09;91931.34;;;6.96;100.00
59274;BME280;45044;41.572;24.730;2023-02-28T06:18:37;91923.38;;;7.05;100.00
59274;BME280;45044;41.572;24.730;2023-02-28T06:21:04;91926.28;;;7.03;100.00
59274;BME280;45044;41.572;24.730;2023-02-28T06:23:31;91928.69;;;7.09;100.00
59274;BME280;45044;41.572;24.730;2023-02-28T06:25:58;91938.72;;;7.23;100.00
59274;BME280;45044;41.572;24.730;2023-02-28T06:28:25;91926.41;;;7.23;100.00
59274;BME280;45044;41.572;24.730;2023-02-28T06:30:52;91931.56;;;7.36;100.00
59274;BME280;45044;41.572;24.730;2023-02-28T06:33:19;91927.16;;;7.40;100.00
59274;BME280;45044;41.572;24.730;2023-02-28T06:35:52;91941.00;;;7.24;100.00
59274;BME280;45044;41.572;24.730;2023-02-28T06:38:20;91935.41;;;7.10;100.00
59274;BME280;45044;41.572;24.730;2023-02-28T06:40:53;91929.47;;;7.41;100.00
59274;BME280;45044;41.572;24.730;2023-02-28T06:43:21;91928.34;;;7.59;100.00
59274;BME280;45044;41.572;24.730;2023-02-28T06:45:48;91927.66;;;7.62;100.00
59274;BME280;45044;41.572;24.730;2023-02-28T06:48:16;91930.78;;;7.67;100.00
59274;BME280;45044;41.572;24.730;2023-02-28T06:50:44;91925.13;;;7.82;100.00
59274;BME280;45044;41.572;24.730;2023-02-28T06:53:11;91932.56;;;7.79;100.00
59274;BME280;45044;41.572;24.730;2023-02-28T06:55:38;91926.00;;;7.53;100.00
59274;BME280;45044;41.572;24.730;2023-02-28T06:58:05;91935.34;;;7.38;100.00
59274;BME280;45044;41.572;24.730;2023-02-28T07:00:45;91931.47;;;7.32;100.00
59274;BME280;45044;41.572;24.730;2023-02-28T07:03:12;91938.03;;;7.26;100.00
59274;BME280;45044;41.572;24.730;2023-02-28T07:05:39;91931.56;;;7.68;100.00
59274;BME280;45044;41.572;24.730;2023-02-28T07:08:06;91926.50;;;7.75;100.00
59274;BME280;45044;41.572;24.730;2023-02-28T07:10:33;91935.16;;;7.96;100.00
59274;BME280;45044;41.572;24.730;2023-02-28T07:13:00;91931.69;;;7.91;100.00
59274;BME280;45044;41.572;24.730;2023-02-28T07:15:27;91935.19;;;7.79;100.00
59274;BME280;45044;41.572;24.730;2023-02-28T07:17:53;91930.63;;;7.76;100.00
59274;BME280;45044;41.572;24.730;2023-02-28T07:20:20;91929.16;;;7.95;100.00
59274;BME280;45044;41.572;24.730;2023-02-28T07:22:47;91930.19;;;8.46;100.00
59274;BME280;45044;41.572;24.730;2023-02-28T07:25:18;91922.44;;;9.60;100.00
59274;BME280;45044;41.572;24.730;2023-02-28T07:27:44;91914.13;;;9.81;100.00
59274;BME280;45044;41.572;24.730;2023-02-28T07:30:11;91920.47;;;9.77;100.00
59274;BME280;45044;41.572;24.730;2023-02-28T07:32:38;91919.78;;;9.33;100.00
59274;BME280;45044;41.572;24.730;2023-02-28T07:35:05;91935.91;;;8.68;100.00
59274;BME280;45044;41.572;24.730;2023-02-28T07:37:32;91932.63;;;8.55;100.00
59274;BME280;45044;41.572;24.730;2023-02-28T07:40:04;91938.47;;;8.48;100.00
59274;BME280;45044;41.572;24.730;2023-02-28T07:42:36;91934.38;;;8.67;100.00
59274;BME280;45044;41.572;24.730;2023-02-28T07:45:04;91930.84;;;8.79;100.00
59274;BME280;45044;41.572;24.730;2023-02-28T07:47:31;91926.47;;;8.47;100.00
59274;BME280;45044;41.572;24.730;2023-02-28T07:49:58;91931.63;;;8.44;100.00
59274;BME280;45044;41.572;24.730;2023-02-28T07:52:25;91923.56;;;8.53;100.00
59274;BME280;45044;41.572;24.730;2023-02-28T07:54:51;91926.63;;;8.55;100.00
59274;BME280;45044;41.572;24.730;2023-02-28T07:57:18;91923.13;;;8.47;100.00
59274;BME280;45044;41.572;24.730;2023-02-28T07:59:46;91927.78;;;8.37;100.00
59274;BME280;45044;41.572;24.730;2023-02-28T08:02:15;91931.84;;;8.35;100.00
59274;BME280;45044;41.572;24.730;2023-02-28T08:04:42;91926.63;;;8.74;100.00
59274;BME280;45044;41.572;24.730;2023-02-28T08:07:09;91931.84;;;8.94;100.00
59274;BME280;45044;41.572;24.730;2023-02-28T08:09:40;91927.53;;;9.26;100.00
59274;BME280;45044;41.572;24.730;2023-02-28T08:12:07;91936.47;;;9.44;100.00
59274;BME280;45044;41.572;24.730;2023-02-28T08:14:35;91942.59;;;9.76;100.00
59274;BME280;45044;41.572;24.730;2023-02-28T08:17:03;91932.78;;;10.00;100.00
59274;BME280;45044;41.572;24.730;2023-02-28T08:19:30;91930.63;;;10.36;100.00
59274;BME280;45044;41.572;24.730;2023-02-28T08:21:57;91932.13;;;10.99;100.00
59274;BME280;45044;41.572;24.730;2023-02-28T08:24:24;91935.25;;;12.03;100.00
59274;BME280;45044;41.572;24.730;2023-02-28T08:26:51;91933.28;;;12.52;100.00
59274;BME280;45044;41.572;24.730;2023-02-28T08:29:18;91929.75;;;12.19;100.00
59274;BME280;45044;41.572;24.730;2023-02-28T08:31:44;91931.94;;;12.09;100.00
59274;BME280;45044;41.572;24.730;2023-02-28T08:34:13;91939.66;;;12.44;100.00
59274;BME280;45044;41.572;24.730;2023-02-28T08:36:41;91938.78;;;12.21;100.00
59274;BME280;45044;41.572;24.730;2023-02-28T08:39:11;91940.75;;;11.79;100.00
59274;BME280;45044;41.572;24.730;2023-02-28T08:41:42;91937.22;;;12.09;100.00
59274;BME280;45044;41.572;24.730;2023-02-28T08:44:09;91928.22;;;12.18;100.00
59274;BME280;45044;41.572;24.730;2023-02-28T08:46:35;91924.50;;;11.70;100.00
59274;BME280;45044;41.572;24.730;2023-02-28T08:49:02;91929.50;;;11.86;100.00
59274;BME280;45044;41.572;24.730;2023-02-28T08:51:29;91914.31;;;11.65;100.00
59274;BME280;45044;41.572;24.730;2023-02-28T08:54:00;91931.25;;;11.67;100.00
59274;BME280;45044;41.572;24.730;2023-02-28T08:56:28;91933.09;;;12.12;100.00
59274;BME280;45044;41.572;24.730;2023-02-28T08:58:56;91939.88;;;12.13;100.00
59274;BME280;45044;41.572;24.730;2023-02-28T09:01:27;91930.28;;;11.86;100.00
59274;BME280;45044;41.572;24.730;2023-02-28T09:03:56;91928.47;;;12.02;100.00
59274;BME280;45044;41.572;24.730;2023-02-28T09:06:25;91928.50;;;12.05;100.00
59274;BME280;45044;41.572;24.730;2023-02-28T09:08:56;91933.25;;;12.41;100.00
59274;BME280;45044;41.572;24.730;2023-02-28T09:11:25;91926.81;;;12.35;100.00
59274;BME280;45044;41.572;24.730;2023-02-28T09:13:52;91921.63;;;12.53;100.00
59274;BME280;45044;41.572;24.730;2023-02-28T09:16:19;91909.78;;;13.40;100.00
59274;BME280;45044;41.572;24.730;2023-02-28T09:18:45;91915.13;;;13.62;100.00
59274;BME280;45044;41.572;24.730;2023-02-28T09:21:15;91903.78;;;13.80;100.00
59274;BME280;45044;41.572;24.730;2023-02-28T09:23:43;91915.06;;;13.25;100.00
59274;BME280;45044;41.572;24.730;2023-02-28T09:26:28;91915.72;;;12.86;100.00
59274;BME280;45044;41.572;24.730;2023-02-28T09:29:08;91903.13;;;12.42;100.00
59274;BME280;45044;41.572;24.730;2023-02-28T09:31:35;91903.44;;;12.26;100.00
59274;BME280;45044;41.572;24.730;2023-02-28T09:34:03;91895.13;;;12.24;100.00
59274;BME280;45044;41.572;24.730;2023-02-28T09:36:30;91897.75;;;12.20;100.00
59274;BME280;45044;41.572;24.730;2023-02-28T09:39:10;91893.94;;;12.18;100.00
59274;BME280;45044;41.572;24.730;2023-02-28T09:41:44;91888.81;;;11.80;100.00
59274;BME280;45044;41.572;24.730;2023-02-28T09:46:49;91886.50;;;11.71;100.00
59274;BME280;45044;41.572;24.730;2023-02-28T09:49:24;91865.16;;;11.34;100.00
59274;BME280;45044;41.572;24.730;2023-02-28T09:51:59;91883.66;;;11.45;100.00
59274;BME280;45044;41.572;24.730;2023-02-28T09:54:30;91880.16;;;11.26;100.00
59274;BME280;45044;41.572;24.730;2023-02-28T09:57:13;91890.66;;;11.23;100.00
59274;BME280;45044;41.572;24.730;2023-02-28T09:59:54;91889.78;;;11.11;100.00
59274;BME280;45044;41.572;24.730;2023-02-28T10:04:59;91883.72;;;11.07;100.00
59274;BME280;45044;41.572;24.730;2023-02-28T10:11:06;91871.28;;;10.62;100.00
59274;BME280;45044;41.572;24.730;2023-02-28T10:13:22;91872.91;;;10.78;100.00
59274;BME280;45044;41.572;24.730;2023-02-28T10:18:43;91865.44;;;10.80;100.00
59274;BME280;45044;41.572;24.730;2023-02-28T10:21:21;91857.97;;;10.86;100.00
59274;BME280;45044;41.572;24.730;2023-02-28T10:23:55;91861.44;;;10.56;100.00
59274;BME280;45044;41.572;24.730;2023-02-28T10:26:26;91866.09;;;10.39;100.00
59274;BME280;45044;41.572;24.730;2023-02-28T10:28:54;91865.66;;;10.64;100.00
59274;BME280;45044;41.572;24.730;2023-02-28T10:31:21;91875.13;;;10.72;100.00
59274;BME280;45044;41.572;24.730;2023-02-28T10:33:51;91864.59;;;10.69;100.00
59274;BME280;45044;41.572;24.730;2023-02-28T10:36:20;91858.13;;;10.62;100.00
59274;BME280;45044;41.572;24.730;2023-02-28T10:38:47;91859.03;;;10.43;100.00
59274;BME280;45044;41.572;24.730;2023-02-28T10:41:25;91850.13;;;10.21;100.00
59274;BME280;45044;41.572;24.730;2023-02-28T10:44:21;91858.78;;;10.21;100.00
59274;BME280;45044;41.572;24.730;2023-02-28T10:46:49;91852.75;;;10.21;100.00
59274;BME280;45044;41.572;24.730;2023-02-28T10:49:21;91852.38;;;10.22;100.00
59274;BME280;45044;41.572;24.730;2023-02-28T10:51:52;91852.16;;;10.35;100.00
59274;BME280;45044;41.572;24.730;2023-02-28T10:54:44;91849.09;;;10.29;100.00
59274;BME280;45044;41.572;24.730;2023-02-28T10:57:22;91846.63;;;10.13;100.00
59274;BME280;45044;41.572;24.730;2023-02-28T11:00:08;91844.56;;;9.95;100.00
59274;BME280;45044;41.572;24.730;2023-02-28T11:02:39;91836.53;;;9.84;100.00
59274;BME280;45044;41.572;24.730;2023-02-28T11:05:31;91841.19;;;9.67;100.00
59274;BME280;45044;41.572;24.730;2023-02-28T11:08:06;91843.69;;;9.33;100.00
59274;BME280;45044;41.572;24.730;2023-02-28T11:10:37;91845.00;;;9.19;100.00
59274;BME280;45044;41.572;24.730;2023-02-28T11:13:05;91842.50;;;9.27;100.00
59274;BME280;45044;41.572;24.730;2023-02-28T11:15:33;91845.16;;;9.30;100.00
59274;BME280;45044;41.572;24.730;2023-02-28T11:20:39;91846.19;;;9.49;100.00
59274;BME280;45044;41.572;24.730;2023-02-28T11:23:12;91846.44;;;9.40;100.00
59274;BME280;45044;41.572;24.730;2023-02-28T11:25:40;91837.41;;;9.38;100.00
59274;BME280;45044;41.572;24.730;2023-02-28T11:28:34;91844.91;;;9.39;100.00
59274;BME280;45044;41.572;24.730;2023-02-28T11:38:38;91849.88;;;9.21;100.00
59274;BME280;45044;41.572;24.730;2023-02-28T11:46:51;91840.38;;;8.89;100.00
59274;BME280;45044;41.572;24.730;2023-02-28T11:49:30;91851.09;;;9.04;100.00
59274;BME280;45044;41.572;24.730;2023-02-28T11:52:06;91840.63;;;9.04;100.00
59274;BME280;45044;41.572;24.730;2023-02-28T11:57:30;91837.31;;;9.07;100.00
59274;BME280;45044;41.572;24.730;2023-02-28T12:00:25;91835.78;;;9.06;100.00
59274;BME280;45044;41.572;24.730;2023-02-28T12:05:44;91829.75;;;8.58;100.00
59274;BME280;45044;41.572;24.730;2023-02-28T12:27:27;91829.94;;;8.49;100.00
59274;BME280;45044;41.572;24.730;2023-02-28T12:30:21;91836.34;;;8.52;100.00
59274;BME280;45044;41.572;24.730;2023-02-28T12:32:53;91836.66;;;8.47;100.00
59274;BME280;45044;41.572;24.730;2023-02-28T12:35:26;91827.06;;;8.35;100.00
59274;BME280;45044;41.572;24.730;2023-02-28T12:38:17;91829.16;;;8.49;100.00
59274;BME280;45044;41.572;24.730;2023-02-28T12:40:51;91833.47;;;8.37;100.00
59274;BME280;45044;41.572;24.730;2023-02-28T12:43:22;91826.50;;;8.45;100.00
59274;BME280;45044;41.572;24.730;2023-02-28T12:45:57;91824.16;;;8.60;100.00
59274;BME280;45044;41.572;24.730;2023-02-28T12:48:30;91823.06;;;8.61;100.00
59274;BME280;45044;41.572;24.730;2023-02-28T12:50:58;91815.13;;;8.57;100.00
59274;BME280;45044;41.572;24.730;2023-02-28T12:53:49;91823.19;;;8.48;100.00
59274;BME280;45044;41.572;24.730;2023-02-28T12:59:07;91822.00;;;8.66;100.00
59274;BME280;45044;41.572;24.730;2023-02-28T13:04:52;91808.06;;;8.61;100.00
59274;BME280;45044;41.572;24.730;2023-02-28T13:10:08;91804.31;;;8.59;100.00
59274;BME280;45044;41.572;24.730;2023-02-28T13:12:47;91805.94;;;8.47;100.00
59274;BME280;45044;41.572;24.730;2023-02-28T13:15:21;91799.75;;;8.56;100.00
59274;BME280;45044;41.572;24.730;2023-02-28T13:17:53;91799.59;;;8.68;100.00
59274;BME280;45044;41.572;24.730;2023-02-28T13:20:24;91812.47;;;8.77;100.00
59274;BME280;45044;41.572;24.730;2023-02-28T13:22:53;91803.72;;;8.69;100.00
59274;BME280;45044;41.572;24.730;2023-02-28T13:28:01;91806.84;;;8.55;100.00
59274;BME280;45044;41.572;24.730;2023-02-28T13:35:46;91813.06;;;8.27;100.00
59274;BME280;45044;41.572;24.730;2023-02-28T13:38:21;91818.28;;;8.27;100.00
59274;BME280;45044;41.572;24.730;2023-02-28T13:40:49;91810.72;;;8.22;100.00
59274;BME280;45044;41.572;24.730;2023-02-28T13:43:17;91805.47;;;8.22;100.00
59274;BME280;45044;41.572;24.730;2023-02-28T13:46:22;91807.22;;;8.34;100.00
59274;BME280;45044;41.572;24.730;2023-02-28T13:48:49;91802.94;;;8.06;100.00
59274;BME280;45044;41.572;24.730;2023-02-28T13:51:35;91799.50;;;8.01;100.00
59274;BME280;45044;41.572;24.730;2023-02-28T14:00:33;91813.47;;;8.09;100.00
59274;BME280;45044;41.572;24.730;2023-02-28T14:09:02;91809.91;;;8.18;100.00
59274;BME280;45044;41.572;24.730;2023-02-28T14:11:36;91805.25;;;8.31;100.00
59274;BME280;45044;41.572;24.730;2023-02-28T14:14:05;91807.09;;;8.07;100.00
59274;BME280;45044;41.572;24.730;2023-02-28T14:16:44;91805.75;;;8.36;100.00
59274;BME280;45044;41.572;24.730;2023-02-28T14:19:25;91807.88;;;8.31;100.00
59274;BME280;45044;41.572;24.730;2023-02-28T14:22:03;91800.84;;;8.35;100.00
59274;BME280;45044;41.572;24.730;2023-02-28T14:24:50;91800.50;;;8.36;100.00
59274;BME280;45044;41.572;24.730;2023-02-28T14:27:32;91797.88;;;8.36;100.00
59274;BME280;45044;41.572;24.730;2023-02-28T14:38:20;91788.66;;;8.43;100.00
59274;BME280;45044;41.572;24.730;2023-02-28T14:40:55;91794.91;;;8.58;100.00
59274;BME280;45044;41.572;24.730;2023-02-28T14:43:25;91800.28;;;8.65;100.00
59274;BME280;45044;41.572;24.730;2023-02-28T14:45:55;91802.91;;;8.45;100.00
59274;BME280;45044;41.572;24.730;2023-02-28T14:48:23;91790.44;;;8.58;100.00
59274;BME280;45044;41.572;24.730;2023-02-28T14:51:02;91809.38;;;8.71;100.00
59274;BME280;45044;41.572;24.730;2023-02-28T14:53:30;91802.75;;;8.78;100.00
59274;BME280;45044;41.572;24.730;2023-02-28T14:56:02;91808.13;;;8.85;100.00
59274;BME280;45044;41.572;24.730;2023-02-28T14:58:31;91800.75;;;8.94;100.00
59274;BME280;45044;41.572;24.730;2023-02-28T15:01:03;91803.44;;;8.74;100.00
59274;BME280;45044;41.572;24.730;2023-02-28T15:03:33;91801.56;;;8.32;100.00
59274;BME280;45044;41.572;24.730;2023-02-28T15:06:06;91810.25;;;8.36;100.00
59274;BME280;45044;41.572;24.730;2023-02-28T15:08:38;91810.25;;;8.36;100.00
59274;BME280;45044;41.572;24.730;2023-02-28T15:11:08;91800.94;;;7.99;100.00
59274;BME280;45044;41.572;24.730;2023-02-28T15:13:40;91808.94;;;8.06;100.00